createdAt,value
2023-03-29T00:01:05.487Z,101186.34
2023-03-29T00:04:15.399Z,101188.97
2023-03-29T00:07:25.390Z,101189.81
2023-03-29T00:10:33.517Z,101194.19
2023-03-29T00:13:41.286Z,101194.81
2023-03-29T00:16:49.341Z,101189.37
2023-03-29T00:19:56.825Z,101193.47
2023-03-29T00:23:05.831Z,101188.69
2023-03-29T00:26:14.518Z,101195.19
2023-03-29T00:29:28.472Z,101182.75
2023-03-29T00:32:38.947Z,101189.72
2023-03-29T00:35:49.478Z,101205.69
2023-03-29T00:38:59.312Z,101202.03
2023-03-29T00:42:08.921Z,101201.03
2023-03-29T00:45:22.442Z,101205.16
2023-03-29T00:48:31.398Z,101202.53
2023-03-29T00:51:39.830Z,101197.84
2023-03-29T00:54:48.171Z,101201.12
2023-03-29T00:57:56.827Z,101202.87
2023-03-29T01:01:10.247Z,101197.44
2023-03-29T01:04:32.727Z,101191.00
2023-03-29T01:08:12.252Z,101187.78
2023-03-29T01:11:25.074Z,101187.38
2023-03-29T01:14:41.382Z,101185.13
2023-03-29T01:17:55.055Z,101186.37
2023-03-29T01:21:10.637Z,101182.69
2023-03-29T01:24:20.348Z,101182.25
2023-03-29T01:27:33.092Z,101177.59
2023-03-29T01:30:47.617Z,101180.62
2023-03-29T01:34:07.041Z,101175.59
2023-03-29T01:37:20.005Z,101174.28
2023-03-29T01:40:29.507Z,101174.88
2023-03-29T01:43:44.030Z,101178.81
2023-03-29T01:46:59.081Z,101179.28
2023-03-29T01:50:22.414Z,101175.59
2023-03-29T01:53:33.627Z,101171.53
2023-03-29T01:56:46.886Z,101170.69
2023-03-29T01:59:56.976Z,101162.34
2023-03-29T02:03:07.478Z,101174.16
2023-03-29T02:06:16.558Z,101167.06
2023-03-29T02:09:26.955Z,101176.97
2023-03-29T02:12:39.831Z,101177.13
2023-03-29T02:15:49.620Z,101180.69
2023-03-29T02:18:58.566Z,101182.50
2023-03-29T02:22:12.021Z,101171.00
2023-03-29T02:25:21.557Z,101172.37
2023-03-29T02:28:31.744Z,101170.94
2023-03-29T02:31:52.544Z,101174.50
2023-03-29T02:35:05.772Z,101178.19
2023-03-29T02:38:13.916Z,101184.44
2023-03-29T02:41:27.794Z,101181.81
2023-03-29T02:44:38.525Z,101177.94
2023-03-29T02:47:49.305Z,101188.12
2023-03-29T02:50:58.073Z,101186.34
2023-03-29T02:54:13.432Z,101189.72
2023-03-29T02:57:28.359Z,101197.44
2023-03-29T03:00:38.156Z,101190.69
2023-03-29T03:03:47.050Z,101199.13
2023-03-29T03:06:58.926Z,101201.06
2023-03-29T03:10:09.128Z,101199.13
2023-03-29T03:13:19.656Z,101196.53
2023-03-29T03:16:27.619Z,101200.63
2023-03-29T03:19:38.580Z,101197.41
2023-03-29T03:22:51.770Z,101202.31
2023-03-29T03:25:59.750Z,101200.28
2023-03-29T03:29:11.103Z,101200.63
2023-03-29T03:32:24.345Z,101201.94
2023-03-29T03:35:39.030Z,101204.62
2023-03-29T03:38:49.357Z,101208.12
2023-03-29T03:41:57.368Z,101209.97
2023-03-29T03:45:12.306Z,101214.00
2023-03-29T03:48:25.459Z,101214.53
2023-03-29T03:51:46.514Z,101227.50
2023-03-29T03:54:55.459Z,101207.84
2023-03-29T03:58:06.232Z,101214.75
2023-03-29T04:01:19.069Z,101205.41
2023-03-29T04:04:29.879Z,101205.00
2023-03-29T04:07:38.141Z,101205.84
2023-03-29T04:10:54.662Z,101220.13
2023-03-29T04:14:02.675Z,101214.72
2023-03-29T04:17:13.413Z,101210.16
2023-03-29T04:20:21.630Z,101207.44
2023-03-29T04:23:29.913Z,101217.22
2023-03-29T04:26:37.821Z,101211.62
2023-03-29T04:29:47.050Z,101216.00
2023-03-29T04:32:53.338Z,101213.72
2023-03-29T04:36:15.036Z,101205.06
2023-03-29T04:39:23.385Z,101205.91
2023-03-29T04:42:36.034Z,101208.56
2023-03-29T04:45:43.540Z,101211.03
2023-03-29T04:48:50.370Z,101210.63
2023-03-29T04:52:07.988Z,101206.97
2023-03-29T04:55:15.612Z,101214.56
2023-03-29T04:58:30.732Z,101212.72
2023-03-29T05:01:43.382Z,101221.88
2023-03-29T05:04:52.742Z,101218.84
2023-03-29T05:07:59.590Z,101222.75
2023-03-29T05:11:12.349Z,101221.75
2023-03-29T05:14:20.448Z,101231.53
2023-03-29T05:17:33.207Z,101228.38
2023-03-29T05:20:41.897Z,101221.88
2023-03-29T05:23:48.314Z,101218.72
2023-03-29T05:26:57.314Z,101223.37
2023-03-29T05:30:06.203Z,101215.63
2023-03-29T05:33:13.944Z,101216.50
2023-03-29T05:36:20.798Z,101211.25
2023-03-29T05:39:27.757Z,101224.81
2023-03-29T05:42:32.014Z,101221.50
2023-03-29T05:45:37.678Z,101223.09
2023-03-29T05:48:44.504Z,101218.06
2023-03-29T05:51:53.027Z,101225.44
2023-03-29T05:54:57.914Z,101233.97
2023-03-29T05:58:05.422Z,101232.53
2023-03-29T06:01:13.214Z,101242.50
2023-03-29T06:04:22.209Z,101235.53
2023-03-29T06:07:30.092Z,101240.94
2023-03-29T06:10:37.882Z,101237.78
2023-03-29T06:13:44.515Z,101236.78
2023-03-29T06:16:51.337Z,101244.53
2023-03-29T06:19:57.073Z,101242.66
2023-03-29T06:23:03.384Z,101249.09
2023-03-29T06:26:11.054Z,101247.91
2023-03-29T06:29:19.331Z,101249.06
2023-03-29T06:32:25.561Z,101256.87
2023-03-29T06:35:34.196Z,101247.59
2023-03-29T06:38:39.104Z,101254.81
2023-03-29T06:41:45.442Z,101265.09
2023-03-29T06:44:52.825Z,101261.28
2023-03-29T06:47:58.215Z,101264.94
2023-03-29T06:51:04.759Z,101262.28
2023-03-29T06:54:13.784Z,101272.22
2023-03-29T06:57:20.789Z,101266.66
2023-03-29T07:00:28.976Z,101268.34
2023-03-29T07:03:36.808Z,101263.78
2023-03-29T07:06:49.047Z,101268.94
2023-03-29T07:09:55.936Z,101270.53
2023-03-29T07:13:03.788Z,101277.78
2023-03-29T07:16:15.994Z,101278.63
2023-03-29T07:19:24.405Z,101286.28
2023-03-29T07:22:34.966Z,101291.63
2023-03-29T07:25:41.849Z,101284.81
2023-03-29T07:28:46.099Z,101285.16
2023-03-29T07:31:50.882Z,101296.12
2023-03-29T07:34:58.854Z,101292.69
2023-03-29T07:38:04.373Z,101299.97
2023-03-29T07:41:09.083Z,101299.28
2023-03-29T07:44:19.004Z,101300.53
2023-03-29T07:47:23.763Z,101299.53
2023-03-29T07:50:29.269Z,101303.88
2023-03-29T07:53:38.397Z,101300.69
2023-03-29T07:56:48.450Z,101298.75
2023-03-29T07:59:52.939Z,101306.94
2023-03-29T08:02:58.193Z,101304.31
2023-03-29T08:06:04.496Z,101306.56
2023-03-29T08:09:11.160Z,101305.69
2023-03-29T08:12:17.972Z,101303.94
2023-03-29T08:15:22.636Z,101297.69
2023-03-29T08:18:28.009Z,101301.31
2023-03-29T08:21:33.189Z,101290.50
2023-03-29T08:24:42.206Z,101295.66
2023-03-29T08:27:49.076Z,101285.00
2023-03-29T08:30:56.555Z,101288.41
2023-03-29T08:34:03.405Z,101290.53
2023-03-29T08:37:12.057Z,101287.03
2023-03-29T08:40:20.664Z,101282.50
2023-03-29T08:43:40.356Z,101285.47
2023-03-29T08:46:56.410Z,101286.00
2023-03-29T08:50:03.371Z,101291.66
2023-03-29T08:53:18.593Z,101287.84
2023-03-29T08:56:30.262Z,101291.31
2023-03-29T08:59:40.749Z,101288.13
2023-03-29T09:02:48.193Z,101278.13
2023-03-29T09:06:08.738Z,101267.53
2023-03-29T09:09:20.442Z,101269.66
2023-03-29T09:12:43.797Z,101262.19
2023-03-29T09:15:52.535Z,101267.34
2023-03-29T09:19:11.972Z,101255.81
2023-03-29T09:22:24.153Z,101238.56
2023-03-29T09:25:29.730Z,101246.06
2023-03-29T09:28:51.828Z,101243.69
2023-03-29T09:31:57.918Z,101246.91
2023-03-29T09:35:04.360Z,101243.16
2023-03-29T09:38:13.621Z,101230.84
2023-03-29T09:41:21.983Z,101236.81
2023-03-29T09:44:32.842Z,101239.56
2023-03-29T09:47:42.161Z,101237.63
2023-03-29T09:50:49.200Z,101224.72
2023-03-29T09:53:57.281Z,101224.78
2023-03-29T09:57:02.224Z,101216.97
2023-03-29T10:00:07.553Z,101215.00
2023-03-29T10:03:22.306Z,101211.25
2023-03-29T10:06:30.086Z,101213.19
2023-03-29T10:09:36.739Z,101212.28
2023-03-29T10:12:50.590Z,101197.84
2023-03-29T10:16:04.420Z,101201.09
2023-03-29T10:19:19.829Z,101185.53
2023-03-29T10:22:28.176Z,101186.75
2023-03-29T10:25:34.698Z,101175.34
2023-03-29T10:28:40.145Z,101178.12
2023-03-29T10:31:44.349Z,101176.09
2023-03-29T10:34:50.069Z,101178.12
2023-03-29T10:38:01.369Z,101173.25
2023-03-29T10:41:11.419Z,101170.75
2023-03-29T10:44:32.312Z,101164.19
2023-03-29T10:47:39.150Z,101153.00
2023-03-29T10:50:48.931Z,101154.88
2023-03-29T10:53:52.345Z,101150.41
2023-03-29T10:56:58.126Z,101155.19
2023-03-29T11:00:05.816Z,101150.81
2023-03-29T11:03:13.108Z,101152.28
2023-03-29T11:06:23.496Z,101149.97
2023-03-29T11:09:40.571Z,101150.22
2023-03-29T11:12:57.541Z,101146.19
2023-03-29T11:16:25.028Z,101142.78
2023-03-29T11:19:42.087Z,101153.69
2023-03-29T11:22:50.286Z,101137.69
2023-03-29T11:25:58.706Z,101148.75
2023-03-29T11:29:10.305Z,101141.69
2023-03-29T11:32:23.997Z,101134.75
2023-03-29T11:35:38.885Z,101129.59
2023-03-29T11:38:55.940Z,101128.25
2023-03-29T11:42:11.175Z,101122.38
2023-03-29T11:45:22.011Z,101116.62
2023-03-29T11:48:30.357Z,101109.16
2023-03-29T11:51:53.958Z,101103.19
2023-03-29T11:55:05.413Z,101103.19
2023-03-29T11:58:43.031Z,101114.97
2023-03-29T12:01:51.221Z,101101.19
2023-03-29T12:05:00.005Z,101097.03
2023-03-29T12:08:04.174Z,101089.00
2023-03-29T12:11:15.771Z,101092.44
2023-03-29T12:14:50.433Z,101090.91
2023-03-29T12:17:59.230Z,101086.62
2023-03-29T12:21:08.365Z,101081.72
2023-03-29T12:24:16.669Z,101075.62
2023-03-29T12:27:40.002Z,101079.22
2023-03-29T12:30:50.775Z,101067.19
2023-03-29T12:34:06.034Z,101058.09
2023-03-29T12:37:24.019Z,101061.63
2023-03-29T12:40:38.127Z,101065.53
2023-03-29T12:43:50.253Z,101051.94
2023-03-29T12:46:59.077Z,101052.09
2023-03-29T12:50:05.228Z,101048.97
2023-03-29T12:53:36.625Z,101050.56
2023-03-29T12:57:19.462Z,101044.19
2023-03-29T13:00:28.081Z,101043.78
2023-03-29T13:03:52.140Z,101039.56
2023-03-29T13:07:04.274Z,101044.44
2023-03-29T13:10:30.833Z,101047.94
2023-03-29T13:13:42.027Z,101031.41
2023-03-29T13:16:49.388Z,101032.66
2023-03-29T13:20:13.095Z,101020.22
2023-03-29T13:23:18.206Z,101027.41
2023-03-29T13:26:35.195Z,101017.19
2023-03-29T13:29:50.460Z,101013.66
2023-03-29T13:33:04.293Z,101010.66
2023-03-29T13:36:17.079Z,101010.28
2023-03-29T13:39:29.012Z,100990.47
2023-03-29T13:42:35.360Z,101004.00
2023-03-29T13:45:41.342Z,101005.19
2023-03-29T13:48:51.972Z,100996.47
2023-03-29T13:52:14.751Z,100990.25
2023-03-29T13:55:26.900Z,100990.63
2023-03-29T13:58:40.687Z,100989.56
2023-03-29T14:01:57.116Z,100977.78
2023-03-29T14:05:08.110Z,100970.84
2023-03-29T14:08:21.816Z,100980.72
2023-03-29T14:11:27.276Z,100980.88
2023-03-29T14:14:35.155Z,100974.94
2023-03-29T14:17:41.387Z,100983.47
2023-03-29T14:20:51.199Z,100972.78
2023-03-29T14:23:59.173Z,100961.72
2023-03-29T14:27:14.808Z,100958.16
2023-03-29T14:30:24.492Z,100958.28
2023-03-29T14:33:31.368Z,100958.97
2023-03-29T14:36:39.111Z,100955.41
2023-03-29T14:39:45.705Z,100957.56
2023-03-29T14:42:55.121Z,100957.28
2023-03-29T14:46:07.101Z,100958.66
2023-03-29T14:49:28.036Z,100960.38
2023-03-29T14:52:34.880Z,100955.25
2023-03-29T14:55:41.239Z,100947.03
2023-03-29T14:58:47.018Z,100943.31
2023-03-29T15:01:53.614Z,100943.53
2023-03-29T15:05:07.454Z,100946.34
2023-03-29T15:08:20.150Z,100944.72
2023-03-29T15:11:28.600Z,100947.09
2023-03-29T15:14:37.435Z,100938.25
2023-03-29T15:17:52.291Z,100950.94
2023-03-29T15:20:59.029Z,100943.59
2023-03-29T15:24:05.386Z,100937.56
2023-03-29T15:27:19.356Z,100933.69
2023-03-29T15:30:35.367Z,100933.31
2023-03-29T15:33:42.562Z,100938.66
2023-03-29T15:36:50.107Z,100941.31
2023-03-29T15:39:58.032Z,100929.75
2023-03-29T15:43:03.954Z,100931.78
2023-03-29T15:46:09.811Z,100920.50
2023-03-29T15:49:15.625Z,100911.91
2023-03-29T15:52:24.022Z,100912.91
2023-03-29T15:55:31.051Z,100914.50
2023-03-29T15:58:36.778Z,100918.41
2023-03-29T16:01:44.546Z,100919.03
2023-03-29T16:04:54.478Z,100909.38
2023-03-29T16:08:06.093Z,100906.31
2023-03-29T16:11:13.059Z,100906.00
2023-03-29T16:14:21.132Z,100900.94
2023-03-29T16:17:29.021Z,100898.06
2023-03-29T16:20:40.657Z,100892.59
2023-03-29T16:23:48.721Z,100889.38
2023-03-29T16:26:57.767Z,100893.66
2023-03-29T16:30:07.039Z,100901.84
2023-03-29T16:33:13.360Z,100898.81
2023-03-29T16:36:21.808Z,100883.25
2023-03-29T16:39:29.759Z,100881.44
2023-03-29T16:42:38.812Z,100883.47
2023-03-29T16:45:50.360Z,100889.66
2023-03-29T16:49:02.061Z,100889.28
2023-03-29T16:52:10.214Z,100889.56
2023-03-29T16:55:21.322Z,100891.63
2023-03-29T16:58:28.791Z,100888.06
2023-03-29T17:01:35.459Z,100884.84
2023-03-29T17:04:46.135Z,100895.31
2023-03-29T17:07:54.580Z,100887.66
2023-03-29T17:11:03.889Z,100882.41
2023-03-29T17:14:12.918Z,100882.81
2023-03-29T17:17:20.587Z,100873.09
2023-03-29T17:20:29.246Z,100872.66
2023-03-29T17:23:36.303Z,100877.94
2023-03-29T17:26:46.320Z,100878.91
2023-03-29T17:29:54.291Z,100884.44
2023-03-29T17:33:01.986Z,100885.72
2023-03-29T17:36:10.755Z,100889.22
2023-03-29T17:39:20.036Z,100892.81
2023-03-29T17:42:26.594Z,100902.53
2023-03-29T17:45:35.996Z,100897.66
2023-03-29T17:48:43.021Z,100897.84
2023-03-29T17:51:58.355Z,100903.66
2023-03-29T17:55:04.610Z,100899.34
2023-03-29T17:58:14.903Z,100900.72
2023-03-29T18:01:22.339Z,100903.97
2023-03-29T18:04:31.822Z,100906.72
2023-03-29T18:07:38.575Z,100917.97
2023-03-29T18:10:47.362Z,100909.09
2023-03-29T18:13:56.178Z,100917.44
2023-03-29T18:17:05.449Z,100916.59
2023-03-29T18:20:13.578Z,100916.34
2023-03-29T18:23:22.064Z,100928.28
2023-03-29T18:26:28.927Z,100925.91
2023-03-29T18:29:39.759Z,100937.72
2023-03-29T18:32:45.856Z,100929.97
2023-03-29T18:35:54.873Z,100938.13
2023-03-29T18:39:07.612Z,100935.50
2023-03-29T18:42:17.964Z,100941.31
2023-03-29T18:45:25.626Z,100940.75
2023-03-29T18:48:35.007Z,100934.94
2023-03-29T18:51:45.048Z,100938.41
2023-03-29T18:54:55.060Z,100939.50
2023-03-29T18:58:05.485Z,100930.06
2023-03-29T19:01:12.215Z,100934.19
2023-03-29T19:04:21.587Z,100934.91
2023-03-29T19:07:28.934Z,100931.97
2023-03-29T19:10:38.953Z,100928.37
2023-03-29T19:13:48.899Z,100942.41
2023-03-29T19:17:00.269Z,100933.66
2023-03-29T19:20:10.572Z,100934.59
2023-03-29T19:23:15.061Z,100946.09
2023-03-29T19:26:20.289Z,100938.47
2023-03-29T19:29:28.226Z,100939.00
2023-03-29T19:32:37.774Z,100941.38
2023-03-29T19:35:44.012Z,100950.00
2023-03-29T19:38:51.333Z,100950.56
2023-03-29T19:41:59.468Z,100942.47
2023-03-29T19:45:11.207Z,100945.13
2023-03-29T19:48:23.179Z,100940.00
2023-03-29T19:51:31.522Z,100944.44
2023-03-29T19:54:39.010Z,100941.50
2023-03-29T19:57:48.447Z,100940.56
2023-03-29T20:01:00.188Z,100937.47
2023-03-29T20:04:07.978Z,100934.00
2023-03-29T20:07:16.161Z,100933.84
2023-03-29T20:10:22.832Z,100928.81
2023-03-29T20:13:38.130Z,100931.59
2023-03-29T20:16:45.003Z,100939.53
2023-03-29T20:19:48.315Z,100931.72
2023-03-29T20:23:00.633Z,100924.25
2023-03-29T20:26:12.130Z,100918.81
2023-03-29T20:29:21.819Z,100926.13
2023-03-29T20:32:30.941Z,100910.19
2023-03-29T20:35:37.217Z,100923.09
2023-03-29T20:38:43.370Z,100912.13
2023-03-29T20:41:55.328Z,100912.72
2023-03-29T20:45:05.275Z,100904.09
2023-03-29T20:48:14.389Z,100912.00
2023-03-29T20:51:20.488Z,100906.62
2023-03-29T20:54:29.408Z,100909.25
2023-03-29T20:57:39.111Z,100911.69
2023-03-29T21:00:45.947Z,100905.47
2023-03-29T21:03:51.546Z,100904.53
2023-03-29T21:06:56.710Z,100895.66
2023-03-29T21:10:02.237Z,100897.00
2023-03-29T21:13:08.561Z,100902.28
2023-03-29T21:16:14.316Z,100897.84
2023-03-29T21:19:22.440Z,100895.91
2023-03-29T21:22:31.627Z,100899.56
2023-03-29T21:25:41.081Z,100897.16
2023-03-29T21:28:49.425Z,100900.53
2023-03-29T21:31:54.059Z,100894.37
2023-03-29T21:35:00.981Z,100902.16
2023-03-29T21:38:14.606Z,100892.44
2023-03-29T21:41:20.132Z,100897.16
2023-03-29T21:44:26.612Z,100897.97
2023-03-29T21:47:31.581Z,100895.50
2023-03-29T21:50:38.132Z,100894.63
2023-03-29T21:53:44.873Z,100895.59
2023-03-29T21:56:54.042Z,100885.44
2023-03-29T22:00:08.520Z,100886.72
2023-03-29T22:03:16.899Z,100883.88
2023-03-29T22:06:26.668Z,100886.41
2023-03-29T22:09:37.232Z,100891.28
2023-03-29T22:12:48.225Z,100892.38
2023-03-29T22:15:57.483Z,100893.75
2023-03-29T22:19:05.039Z,100895.78
2023-03-29T22:22:15.108Z,100897.66
2023-03-29T22:25:22.286Z,100889.41
2023-03-29T22:28:30.164Z,100885.19
2023-03-29T22:31:39.639Z,100885.63
2023-03-29T22:34:46.698Z,100903.59
2023-03-29T22:37:55.365Z,100888.28
2023-03-29T22:41:03.134Z,100886.22
2023-03-29T22:44:09.196Z,100885.91
2023-03-29T22:47:17.563Z,100890.19
2023-03-29T22:50:24.946Z,100903.94
2023-03-29T22:53:34.954Z,100899.94
2023-03-29T22:56:42.203Z,100900.75
2023-03-29T22:59:50.852Z,100900.47
2023-03-29T23:02:57.040Z,100900.91
2023-03-29T23:06:03.433Z,100898.66
2023-03-29T23:09:13.418Z,100896.88
2023-03-29T23:12:21.404Z,100900.47
2023-03-29T23:15:31.398Z,100907.25
2023-03-29T23:18:39.188Z,100903.44
2023-03-29T23:21:45.110Z,100902.69
2023-03-29T23:24:53.984Z,100904.06
2023-03-29T23:28:04.262Z,100901.66
2023-03-29T23:31:11.995Z,100898.34
2023-03-29T23:34:17.605Z,100895.88
2023-03-29T23:37:24.015Z,100901.47
2023-03-29T23:40:29.741Z,100892.50
2023-03-29T23:43:39.590Z,100893.09
2023-03-29T23:46:43.231Z,100892.66
2023-03-29T23:49:48.672Z,100890.84
2023-03-29T23:52:55.835Z,100897.94
2023-03-29T23:56:05.905Z,100900.72
2023-03-29T23:59:11.277Z,100894.22
